sensor_id;sensor_type;location;lat;lon;timestamp;temperature;humidity
76537;DHT22;65381;51.254;15.592;2023-06-22T00:01:28;21.10;53.50
76537;DHT22;65381;51.254;15.592;2023-06-22T00:03:56;21.10;53.70
76537;DHT22;65381;51.254;15.592;2023-06-22T00:06:24;21.10;53.90
76537;DHT22;65381;51.254;15.592;2023-06-22T00:08:52;21.10;54.00
76537;DHT22;65381;51.254;15.592;2023-06-22T00:11:19;21.10;54.10
76537;DHT22;65381;51.254;15.592;2023-06-22T00:13:47;21.10;54.20
76537;DHT22;65381;51.254;15.592;2023-06-22T00:16:16;21.10;54.20
76537;DHT22;65381;51.254;15.592;2023-06-22T00:18:44;21.10;54.30
76537;DHT22;65381;51.254;15.592;2023-06-22T00:21:14;21.10;54.40
76537;DHT22;65381;51.254;15.592;2023-06-22T00:23:42;21.10;54.40
76537;DHT22;65381;51.254;15.592;2023-06-22T00:26:10;21.10;54.50
76537;DHT22;65381;51.254;15.592;2023-06-22T00:28:40;21.10;54.60
76537;DHT22;65381;51.254;15.592;2023-06-22T00:31:07;21.10;54.70
76537;DHT22;65381;51.254;15.592;2023-06-22T00:33:36;21.10;54.80
76537;DHT22;65381;51.254;15.592;2023-06-22T00:36:05;21.10;54.80
76537;DHT22;65381;51.254;15.592;2023-06-22T00:38:37;21.00;54.90
76537;DHT22;65381;51.254;15.592;2023-06-22T00:41:08;21.00;55.00
76537;DHT22;65381;51.254;15.592;2023-06-22T00:43:37;20.90;55.10
76537;DHT22;65381;51.254;15.592;2023-06-22T00:46:06;20.90;55.20
76537;DHT22;65381;51.254;15.592;2023-06-22T00:48:36;20.80;55.30
76537;DHT22;65381;51.254;15.592;2023-06-22T00:51:07;20.80;55.40
76537;DHT22;65381;51.254;15.592;2023-06-22T00:53:35;20.80;55.50
76537;DHT22;65381;51.254;15.592;2023-06-22T00:56:04;20.70;55.60
76537;DHT22;65381;51.254;15.592;2023-06-22T00:58:36;20.60;55.70
76537;DHT22;65381;51.254;15.592;2023-06-22T01:01:04;20.60;55.80
76537;DHT22;65381;51.254;15.592;2023-06-22T01:03:32;20.60;56.00
76537;DHT22;65381;51.254;15.592;2023-06-22T01:06:13;20.60;56.00
76537;DHT22;65381;51.254;15.592;2023-06-22T01:08:52;20.60;56.20
76537;DHT22;65381;51.254;15.592;2023-06-22T01:11:35;20.50;56.30
76537;DHT22;65381;51.254;15.592;2023-06-22T01:16:40;20.60;56.50
76537;DHT22;65381;51.254;15.592;2023-06-22T01:22:05;20.70;56.70
76537;DHT22;65381;51.254;15.592;2023-06-22T01:25:21;20.80;56.70
76537;DHT22;65381;51.254;15.592;2023-06-22T01:27:53;20.80;56.70
76537;DHT22;65381;51.254;15.592;2023-06-22T01:30:24;20.90;56.60
76537;DHT22;65381;51.254;15.592;2023-06-22T01:32:57;20.90;56.40
76537;DHT22;65381;51.254;15.592;2023-06-22T01:35:26;20.90;56.60
76537;DHT22;65381;51.254;15.592;2023-06-22T01:37:55;20.90;56.80
76537;DHT22;65381;51.254;15.592;2023-06-22T01:40:24;20.90;56.90
76537;DHT22;65381;51.254;15.592;2023-06-22T01:42:53;21.00;57.00
76537;DHT22;65381;51.254;15.592;2023-06-22T01:45:21;21.00;57.30
76537;DHT22;65381;51.254;15.592;2023-06-22T01:47:49;21.00;57.50
76537;DHT22;65381;51.254;15.592;2023-06-22T01:50:18;21.00;57.70
76537;DHT22;65381;51.254;15.592;2023-06-22T01:52:46;21.00;57.90
76537;DHT22;65381;51.254;15.592;2023-06-22T01:55:15;21.10;58.00
76537;DHT22;65381;51.254;15.592;2023-06-22T01:57:43;21.10;58.10
76537;DHT22;65381;51.254;15.592;2023-06-22T02:00:17;21.10;58.10
76537;DHT22;65381;51.254;15.592;2023-06-22T02:03:03;21.10;58.20
76537;DHT22;65381;51.254;15.592;2023-06-22T02:05:39;21.10;58.20
76537;DHT22;65381;51.254;15.592;2023-06-22T02:08:22;21.20;58.20
76537;DHT22;65381;51.254;15.592;2023-06-22T02:10:52;21.10;58.20
76537;DHT22;65381;51.254;15.592;2023-06-22T02:13:20;21.10;58.20
76537;DHT22;65381;51.254;15.592;2023-06-22T02:15:49;21.10;58.40
76537;DHT22;65381;51.254;15.592;2023-06-22T02:18:17;21.00;58.50
76537;DHT22;65381;51.254;15.592;2023-06-22T02:20:45;20.90;58.80
76537;DHT22;65381;51.254;15.592;2023-06-22T02:23:13;20.80;58.90
76537;DHT22;65381;51.254;15.592;2023-06-22T02:25:41;20.80;59.00
76537;DHT22;65381;51.254;15.592;2023-06-22T02:28:11;20.70;59.30
76537;DHT22;65381;51.254;15.592;2023-06-22T02:30:40;20.70;59.40
76537;DHT22;65381;51.254;15.592;2023-06-22T02:33:09;20.60;59.60
76537;DHT22;65381;51.254;15.592;2023-06-22T02:35:37;20.60;59.70
76537;DHT22;65381;51.254;15.592;2023-06-22T02:38:05;20.60;59.70
76537;DHT22;65381;51.254;15.592;2023-06-22T02:40:33;20.50;59.80
76537;DHT22;65381;51.254;15.592;2023-06-22T02:43:03;20.50;59.80
76537;DHT22;65381;51.254;15.592;2023-06-22T02:45:31;20.50;59.80
76537;DHT22;65381;51.254;15.592;2023-06-22T02:48:00;20.30;60.00
76537;DHT22;65381;51.254;15.592;2023-06-22T02:50:28;20.30;60.10
76537;DHT22;65381;51.254;15.592;2023-06-22T02:52:58;20.30;60.20
76537;DHT22;65381;51.254;15.592;2023-06-22T02:55:31;20.20;60.30
76537;DHT22;65381;51.254;15.592;2023-06-22T02:57:59;20.10;60.50
76537;DHT22;65381;51.254;15.592;2023-06-22T03:00:32;20.10;60.70
76537;DHT22;65381;51.254;15.592;2023-06-22T03:03:01;20.10;60.90
76537;DHT22;65381;51.254;15.592;2023-06-22T03:05:30;20.10;60.80
76537;DHT22;65381;51.254;15.592;2023-06-22T03:07:59;20.20;60.80
76537;DHT22;65381;51.254;15.592;2023-06-22T03:10:29;20.20;60.70
76537;DHT22;65381;51.254;15.592;2023-06-22T03:12:57;20.20;60.90
76537;DHT22;65381;51.254;15.592;2023-06-22T03:15:25;20.20;61.10
76537;DHT22;65381;51.254;15.592;2023-06-22T03:17:53;20.30;61.40
76537;DHT22;65381;51.254;15.592;2023-06-22T03:20:24;20.30;61.60
76537;DHT22;65381;51.254;15.592;2023-06-22T03:22:55;20.30;61.70
76537;DHT22;65381;51.254;15.592;2023-06-22T03:25:24;20.40;61.70
76537;DHT22;65381;51.254;15.592;2023-06-22T03:27:55;20.50;61.80
76537;DHT22;65381;51.254;15.592;2023-06-22T03:30:23;20.50;61.80
76537;DHT22;65381;51.254;15.592;2023-06-22T03:32:51;20.60;61.80
76537;DHT22;65381;51.254;15.592;2023-06-22T03:35:19;20.70;61.80
76537;DHT22;65381;51.254;15.592;2023-06-22T03:37:48;20.70;61.80
76537;DHT22;65381;51.254;15.592;2023-06-22T03:40:16;20.80;61.80
76537;DHT22;65381;51.254;15.592;2023-06-22T03:42:44;20.90;61.80
76537;DHT22;65381;51.254;15.592;2023-06-22T03:45:12;20.90;61.90
76537;DHT22;65381;51.254;15.592;2023-06-22T03:47:41;21.00;62.00
76537;DHT22;65381;51.254;15.592;2023-06-22T03:50:10;21.00;62.20
76537;DHT22;65381;51.254;15.592;2023-06-22T03:52:39;21.10;62.40
76537;DHT22;65381;51.254;15.592;2023-06-22T03:55:07;21.20;62.50
76537;DHT22;65381;51.254;15.592;2023-06-22T03:57:35;21.40;62.50
76537;DHT22;65381;51.254;15.592;2023-06-22T04:00:04;21.70;62.50
76537;DHT22;65381;51.254;15.592;2023-06-22T04:02:38;21.90;62.40
76537;DHT22;65381;51.254;15.592;2023-06-22T04:05:08;22.10;62.00
76537;DHT22;65381;51.254;15.592;2023-06-22T04:07:36;22.30;61.80
76537;DHT22;65381;51.254;15.592;2023-06-22T04:10:07;22.40;61.70
76537;DHT22;65381;51.254;15.592;2023-06-22T04:12:39;22.50;61.60
76537;DHT22;65381;51.254;15.592;2023-06-22T04:15:08;22.70;61.70
76537;DHT22;65381;51.254;15.592;2023-06-22T04:17:35;22.90;61.60
76537;DHT22;65381;51.254;15.592;2023-06-22T04:20:04;23.00;61.70
76537;DHT22;65381;51.254;15.592;2023-06-22T04:22:32;23.20;61.50
76537;DHT22;65381;51.254;15.592;2023-06-22T04:25:00;23.40;61.50
76537;DHT22;65381;51.254;15.592;2023-06-22T04:27:30;23.60;61.50
76537;DHT22;65381;51.254;15.592;2023-06-22T04:29:58;23.80;61.30
76537;DHT22;65381;51.254;15.592;2023-06-22T04:32:27;24.00;61.20
76537;DHT22;65381;51.254;15.592;2023-06-22T04:34:55;24.20;61.20
76537;DHT22;65381;51.254;15.592;2023-06-22T04:37:23;24.50;60.80
76537;DHT22;65381;51.254;15.592;2023-06-22T04:39:53;24.80;60.50
76537;DHT22;65381;51.254;15.592;2023-06-22T04:42:20;25.00;60.20
76537;DHT22;65381;51.254;15.592;2023-06-22T04:44:48;25.20;60.10
76537;DHT22;65381;51.254;15.592;2023-06-22T04:47:17;25.30;60.00
76537;DHT22;65381;51.254;15.592;2023-06-22T04:49:46;25.50;59.80
76537;DHT22;65381;51.254;15.592;2023-06-22T04:52:14;25.50;59.90
76537;DHT22;65381;51.254;15.592;2023-06-22T04:54:46;25.70;59.90
76537;DHT22;65381;51.254;15.592;2023-06-22T04:57:24;26.10;59.70
76537;DHT22;65381;51.254;15.592;2023-06-22T05:00:00;26.50;59.30
76537;DHT22;65381;51.254;15.592;2023-06-22T05:02:41;26.80;59.00
76537;DHT22;65381;51.254;15.592;2023-06-22T05:05:10;27.30;58.80
76537;DHT22;65381;51.254;15.592;2023-06-22T05:07:45;27.60;58.50
76537;DHT22;65381;51.254;15.592;2023-06-22T05:10:16;28.00;58.20
76537;DHT22;65381;51.254;15.592;2023-06-22T05:12:46;28.30;57.80
76537;DHT22;65381;51.254;15.592;2023-06-22T05:15:15;28.60;57.50
76537;DHT22;65381;51.254;15.592;2023-06-22T05:17:43;28.90;57.30
76537;DHT22;65381;51.254;15.592;2023-06-22T05:20:13;29.10;57.10
76537;DHT22;65381;51.254;15.592;2023-06-22T05:22:41;29.30;56.70
76537;DHT22;65381;51.254;15.592;2023-06-22T05:25:11;29.40;56.40
76537;DHT22;65381;51.254;15.592;2023-06-22T05:27:40;29.40;56.40
76537;DHT22;65381;51.254;15.592;2023-06-22T05:30:09;29.50;56.30
76537;DHT22;65381;51.254;15.592;2023-06-22T05:32:42;29.70;55.80
76537;DHT22;65381;51.254;15.592;2023-06-22T05:35:12;29.70;55.60
76537;DHT22;65381;51.254;15.592;2023-06-22T05:37:40;29.70;55.50
76537;DHT22;65381;51.254;15.592;2023-06-22T05:40:08;30.00;55.20
76537;DHT22;65381;51.254;15.592;2023-06-22T05:42:37;30.30;55.00
76537;DHT22;65381;51.254;15.592;2023-06-22T05:45:05;30.60;54.60
76537;DHT22;65381;51.254;15.592;2023-06-22T05:47:33;31.10;54.20
76537;DHT22;65381;51.254;15.592;2023-06-22T05:50:06;31.30;53.10
76537;DHT22;65381;51.254;15.592;2023-06-22T05:52:39;31.20;53.10
76537;DHT22;65381;51.254;15.592;2023-06-22T05:55:08;31.20;52.80
76537;DHT22;65381;51.254;15.592;2023-06-22T05:57:36;31.40;52.70
76537;DHT22;65381;51.254;15.592;2023-06-22T06:00:05;31.70;52.00
76537;DHT22;65381;51.254;15.592;2023-06-22T06:02:38;32.00;51.10
76537;DHT22;65381;51.254;15.592;2023-06-22T06:05:12;32.20;50.70
76537;DHT22;65381;51.254;15.592;2023-06-22T06:07:46;32.30;50.00
76537;DHT22;65381;51.254;15.592;2023-06-22T06:10:14;32.30;50.10
76537;DHT22;65381;51.254;15.592;2023-06-22T06:12:42;32.50;49.90
76537;DHT22;65381;51.254;15.592;2023-06-22T06:15:10;32.90;49.50
76537;DHT22;65381;51.254;15.592;2023-06-22T06:17:52;33.10;48.70
76537;DHT22;65381;51.254;15.592;2023-06-22T06:20:22;33.20;48.40
76537;DHT22;65381;51.254;15.592;2023-06-22T06:22:50;33.10;48.50
76537;DHT22;65381;51.254;15.592;2023-06-22T06:25:20;32.90;48.70
76537;DHT22;65381;51.254;15.592;2023-06-22T06:27:51;32.60;48.80
76537;DHT22;65381;51.254;15.592;2023-06-22T06:30:19;32.80;49.10
76537;DHT22;65381;51.254;15.592;2023-06-22T06:32:47;33.00;48.80
76537;DHT22;65381;51.254;15.592;2023-06-22T06:35:16;32.90;48.80
76537;DHT22;65381;51.254;15.592;2023-06-22T06:37:45;33.20;48.70
76537;DHT22;65381;51.254;15.592;2023-06-22T06:40:15;33.80;48.20
76537;DHT22;65381;51.254;15.592;2023-06-22T06:42:47;34.40;47.40
76537;DHT22;65381;51.254;15.592;2023-06-22T06:45:18;34.70;47.20
76537;DHT22;65381;51.254;15.592;2023-06-22T06:47:46;35.10;46.70
76537;DHT22;65381;51.254;15.592;2023-06-22T06:50:18;35.40;46.40
76537;DHT22;65381;51.254;15.592;2023-06-22T06:52:46;35.40;46.40
76537;DHT22;65381;51.254;15.592;2023-06-22T06:55:14;36.00;46.20
76537;DHT22;65381;51.254;15.592;2023-06-22T06:57:43;36.90;45.50
76537;DHT22;65381;51.254;15.592;2023-06-22T07:00:12;37.50;44.80
76537;DHT22;65381;51.254;15.592;2023-06-22T07:02:43;37.70;44.10
76537;DHT22;65381;51.254;15.592;2023-06-22T07:05:12;37.70;44.00
76537;DHT22;65381;51.254;15.592;2023-06-22T07:07:40;37.60;43.80
76537;DHT22;65381;51.254;15.592;2023-06-22T07:10:10;37.50;43.60
76537;DHT22;65381;51.254;15.592;2023-06-22T07:12:38;37.10;43.90
76537;DHT22;65381;51.254;15.592;2023-06-22T07:15:09;36.70;44.00
76537;DHT22;65381;51.254;15.592;2023-06-22T07:17:38;36.90;44.20
76537;DHT22;65381;51.254;15.592;2023-06-22T07:20:10;37.30;43.60
76537;DHT22;65381;51.254;15.592;2023-06-22T07:22:43;37.50;43.20
76537;DHT22;65381;51.254;15.592;2023-06-22T07:25:12;37.60;42.90
76537;DHT22;65381;51.254;15.592;2023-06-22T07:27:57;38.00;42.40
76537;DHT22;65381;51.254;15.592;2023-06-22T07:30:28;38.50;41.50
76537;DHT22;65381;51.254;15.592;2023-06-22T07:32:57;38.70;41.20
76537;DHT22;65381;51.254;15.592;2023-06-22T07:35:31;38.70;41.30
76537;DHT22;65381;51.254;15.592;2023-06-22T07:38:00;38.30;40.90
76537;DHT22;65381;51.254;15.592;2023-06-22T07:40:33;37.80;40.30
76537;DHT22;65381;51.254;15.592;2023-06-22T07:43:02;37.30;41.00
76537;DHT22;65381;51.254;15.592;2023-06-22T07:45:31;37.70;41.00
76537;DHT22;65381;51.254;15.592;2023-06-22T07:48:02;38.30;40.60
76537;DHT22;65381;51.254;15.592;2023-06-22T07:50:31;39.20;40.00
76537;DHT22;65381;51.254;15.592;2023-06-22T07:52:59;39.70;39.00
76537;DHT22;65381;51.254;15.592;2023-06-22T07:55:27;39.80;39.00
76537;DHT22;65381;51.254;15.592;2023-06-22T07:57:56;39.90;38.90
76537;DHT22;65381;51.254;15.592;2023-06-22T08:00:24;40.20;38.00
76537;DHT22;65381;51.254;15.592;2023-06-22T08:02:52;39.90;37.60
76537;DHT22;65381;51.254;15.592;2023-06-22T08:05:20;39.40;37.80
76537;DHT22;65381;51.254;15.592;2023-06-22T08:08:02;39.00;37.80
76537;DHT22;65381;51.254;15.592;2023-06-22T08:10:30;38.70;38.00
76537;DHT22;65381;51.254;15.592;2023-06-22T08:12:58;38.30;38.40
76537;DHT22;65381;51.254;15.592;2023-06-22T08:15:26;38.30;38.30
76537;DHT22;65381;51.254;15.592;2023-06-22T08:17:54;38.70;38.10
76537;DHT22;65381;51.254;15.592;2023-06-22T08:20:25;38.70;38.00
76537;DHT22;65381;51.254;15.592;2023-06-22T08:22:55;38.10;38.30
76537;DHT22;65381;51.254;15.592;2023-06-22T08:25:23;38.10;38.70
76537;DHT22;65381;51.254;15.592;2023-06-22T08:27:51;38.70;38.20
76537;DHT22;65381;51.254;15.592;2023-06-22T08:30:20;38.90;38.00
76537;DHT22;65381;51.254;15.592;2023-06-22T08:32:48;39.00;37.80
76537;DHT22;65381;51.254;15.592;2023-06-22T08:35:17;38.80;36.90
76537;DHT22;65381;51.254;15.592;2023-06-22T08:37:45;38.10;37.50
76537;DHT22;65381;51.254;15.592;2023-06-22T08:40:21;38.30;37.70
76537;DHT22;65381;51.254;15.592;2023-06-22T08:42:50;38.70;37.30
76537;DHT22;65381;51.254;15.592;2023-06-22T08:45:18;39.20;36.90
76537;DHT22;65381;51.254;15.592;2023-06-22T08:47:46;39.10;36.80
76537;DHT22;65381;51.254;15.592;2023-06-22T08:50:17;39.20;37.00
76537;DHT22;65381;51.254;15.592;2023-06-22T08:52:45;39.50;36.70
76537;DHT22;65381;51.254;15.592;2023-06-22T08:55:13;40.00;36.30
76537;DHT22;65381;51.254;15.592;2023-06-22T08:57:42;40.30;36.10
76537;DHT22;65381;51.254;15.592;2023-06-22T09:00:12;40.50;36.00
76537;DHT22;65381;51.254;15.592;2023-06-22T09:02:45;40.80;35.60
76537;DHT22;65381;51.254;15.592;2023-06-22T09:05:14;41.10;35.40
76537;DHT22;65381;51.254;15.592;2023-06-22T09:07:43;41.10;35.20
76537;DHT22;65381;51.254;15.592;2023-06-22T09:10:12;41.20;34.90
76537;DHT22;65381;51.254;15.592;2023-06-22T09:12:40;41.20;34.20
76537;DHT22;65381;51.254;15.592;2023-06-22T09:15:08;40.90;34.10
76537;DHT22;65381;51.254;15.592;2023-06-22T09:17:54;40.60;34.60
76537;DHT22;65381;51.254;15.592;2023-06-22T09:20:22;40.80;34.50
76537;DHT22;65381;51.254;15.592;2023-06-22T09:22:50;41.20;34.30
76537;DHT22;65381;51.254;15.592;2023-06-22T09:25:18;41.70;34.10
76537;DHT22;65381;51.254;15.592;2023-06-22T09:27:48;42.00;33.70
76537;DHT22;65381;51.254;15.592;2023-06-22T09:30:16;41.70;33.80
76537;DHT22;65381;51.254;15.592;2023-06-22T09:32:44;41.30;34.00
76537;DHT22;65381;51.254;15.592;2023-06-22T09:35:15;41.10;34.00
76537;DHT22;65381;51.254;15.592;2023-06-22T09:37:43;41.30;33.90
76537;DHT22;65381;51.254;15.592;2023-06-22T09:40:11;40.80;34.10
76537;DHT22;65381;51.254;15.592;2023-06-22T09:42:41;40.40;34.50
76537;DHT22;65381;51.254;15.592;2023-06-22T09:45:09;40.80;34.10
76537;DHT22;65381;51.254;15.592;2023-06-22T09:47:37;40.90;33.80
76537;DHT22;65381;51.254;15.592;2023-06-22T09:50:06;40.40;33.60
76537;DHT22;65381;51.254;15.592;2023-06-22T09:52:36;39.60;34.20
76537;DHT22;65381;51.254;15.592;2023-06-22T09:55:07;39.40;34.40
76537;DHT22;65381;51.254;15.592;2023-06-22T09:57:35;39.60;34.50
76537;DHT22;65381;51.254;15.592;2023-06-22T10:00:05;39.80;34.30
76537;DHT22;65381;51.254;15.592;2023-06-22T10:02:36;39.60;34.20
76537;DHT22;65381;51.254;15.592;2023-06-22T10:05:05;39.60;34.50
76537;DHT22;65381;51.254;15.592;2023-06-22T10:07:33;40.00;34.20
76537;DHT22;65381;51.254;15.592;2023-06-22T10:10:01;40.40;34.00
76537;DHT22;65381;51.254;15.592;2023-06-22T10:12:29;40.20;34.00
76537;DHT22;65381;51.254;15.592;2023-06-22T10:14:58;39.60;34.30
76537;DHT22;65381;51.254;15.592;2023-06-22T10:17:26;39.60;34.40
76537;DHT22;65381;51.254;15.592;2023-06-22T10:19:55;40.00;34.00
76537;DHT22;65381;51.254;15.592;2023-06-22T10:22:23;40.60;33.80
76537;DHT22;65381;51.254;15.592;2023-06-22T10:24:51;41.10;33.40
76537;DHT22;65381;51.254;15.592;2023-06-22T10:27:18;41.20;33.20
76537;DHT22;65381;51.254;15.592;2023-06-22T10:29:46;41.50;33.00
76537;DHT22;65381;51.254;15.592;2023-06-22T10:32:14;41.60;32.80
76537;DHT22;65381;51.254;15.592;2023-06-22T10:34:43;41.10;33.00
76537;DHT22;65381;51.254;15.592;2023-06-22T10:37:10;40.80;33.30
76537;DHT22;65381;51.254;15.592;2023-06-22T10:39:38;40.60;33.40
76537;DHT22;65381;51.254;15.592;2023-06-22T10:42:06;40.50;33.30
76537;DHT22;65381;51.254;15.592;2023-06-22T10:44:34;40.00;33.40
76537;DHT22;65381;51.254;15.592;2023-06-22T10:47:02;39.40;33.90
76537;DHT22;65381;51.254;15.592;2023-06-22T10:49:30;38.70;34.30
76537;DHT22;65381;51.254;15.592;2023-06-22T10:51:58;38.00;34.70
76537;DHT22;65381;51.254;15.592;2023-06-22T10:54:27;37.50;34.90
76537;DHT22;65381;51.254;15.592;2023-06-22T10:56:55;37.50;35.00
76537;DHT22;65381;51.254;15.592;2023-06-22T10:59:23;38.00;34.70
76537;DHT22;65381;51.254;15.592;2023-06-22T11:01:53;38.40;34.40
76537;DHT22;65381;51.254;15.592;2023-06-22T11:04:24;38.90;34.10
76537;DHT22;65381;51.254;15.592;2023-06-22T11:06:52;39.00;33.90
76537;DHT22;65381;51.254;15.592;2023-06-22T11:09:20;39.60;33.70
76537;DHT22;65381;51.254;15.592;2023-06-22T11:11:55;40.30;33.30
76537;DHT22;65381;51.254;15.592;2023-06-22T11:14:24;40.80;32.90
76537;DHT22;65381;51.254;15.592;2023-06-22T11:16:53;40.80;32.60
76537;DHT22;65381;51.254;15.592;2023-06-22T11:19:21;39.80;33.20
76537;DHT22;65381;51.254;15.592;2023-06-22T11:21:50;38.70;34.00
76537;DHT22;65381;51.254;15.592;2023-06-22T11:24:18;38.00;34.50
76537;DHT22;65381;51.254;15.592;2023-06-22T11:26:46;37.00;35.30
76537;DHT22;65381;51.254;15.592;2023-06-22T11:29:14;37.40;35.40
76537;DHT22;65381;51.254;15.592;2023-06-22T11:32:01;38.10;34.70
76537;DHT22;65381;51.254;15.592;2023-06-22T11:34:30;38.60;34.40
76537;DHT22;65381;51.254;15.592;2023-06-22T11:36:58;38.30;34.20
76537;DHT22;65381;51.254;15.592;2023-06-22T11:39:26;37.70;34.70
76537;DHT22;65381;51.254;15.592;2023-06-22T11:42:09;37.90;34.80
76537;DHT22;65381;51.254;15.592;2023-06-22T11:44:39;38.60;34.30
76537;DHT22;65381;51.254;15.592;2023-06-22T11:47:07;39.10;34.00
76537;DHT22;65381;51.254;15.592;2023-06-22T11:49:35;39.70;33.60
76537;DHT22;65381;51.254;15.592;2023-06-22T11:52:03;40.40;33.20
76537;DHT22;65381;51.254;15.592;2023-06-22T11:54:31;40.30;33.20
76537;DHT22;65381;51.254;15.592;2023-06-22T11:56:59;39.80;33.40
76537;DHT22;65381;51.254;15.592;2023-06-22T11:59:28;39.70;33.50
76537;DHT22;65381;51.254;15.592;2023-06-22T12:01:56;39.80;33.50
76537;DHT22;65381;51.254;15.592;2023-06-22T12:04:26;40.30;33.20
76537;DHT22;65381;51.254;15.592;2023-06-22T12:06:54;41.00;32.70
76537;DHT22;65381;51.254;15.592;2023-06-22T12:09:22;40.60;32.60
76537;DHT22;65381;51.254;15.592;2023-06-22T12:11:50;39.40;33.30
76537;DHT22;65381;51.254;15.592;2023-06-22T12:14:18;38.50;34.00
76537;DHT22;65381;51.254;15.592;2023-06-22T12:16:46;38.10;34.20
76537;DHT22;65381;51.254;15.592;2023-06-22T12:19:16;38.00;34.40
76537;DHT22;65381;51.254;15.592;2023-06-22T12:21:44;38.20;34.20
76537;DHT22;65381;51.254;15.592;2023-06-22T12:24:13;38.10;34.10
76537;DHT22;65381;51.254;15.592;2023-06-22T12:26:41;38.30;34.00
76537;DHT22;65381;51.254;15.592;2023-06-22T12:29:11;38.30;34.10
76537;DHT22;65381;51.254;15.592;2023-06-22T12:31:39;38.50;33.90
76537;DHT22;65381;51.254;15.592;2023-06-22T12:34:07;38.10;34.00
76537;DHT22;65381;51.254;15.592;2023-06-22T12:36:35;37.10;34.40
76537;DHT22;65381;51.254;15.592;2023-06-22T12:39:05;36.10;35.10
76537;DHT22;65381;51.254;15.592;2023-06-22T12:41:33;35.10;35.70
76537;DHT22;65381;51.254;15.592;2023-06-22T12:44:03;34.50;36.20
76537;DHT22;65381;51.254;15.592;2023-06-22T12:46:31;34.00;36.60
76537;DHT22;65381;51.254;15.592;2023-06-22T12:49:13;33.50;37.10
76537;DHT22;65381;51.254;15.592;2023-06-22T12:51:41;33.40;37.60
76537;DHT22;65381;51.254;15.592;2023-06-22T12:54:13;33.80;37.50
76537;DHT22;65381;51.254;15.592;2023-06-22T12:56:41;34.00;37.20
76537;DHT22;65381;51.254;15.592;2023-06-22T12:59:11;34.00;37.20
76537;DHT22;65381;51.254;15.592;2023-06-22T13:01:39;34.00;37.20
76537;DHT22;65381;51.254;15.592;2023-06-22T13:04:07;33.80;37.30
76537;DHT22;65381;51.254;15.592;2023-06-22T13:06:35;33.50;37.40
76537;DHT22;65381;51.254;15.592;2023-06-22T13:09:03;33.30;37.70
76537;DHT22;65381;51.254;15.592;2023-06-22T13:11:35;33.10;37.80
76537;DHT22;65381;51.254;15.592;2023-06-22T13:14:03;32.80;38.00
76537;DHT22;65381;51.254;15.592;2023-06-22T13:16:33;32.50;38.30
76537;DHT22;65381;51.254;15.592;2023-06-22T13:19:01;32.40;38.50
76537;DHT22;65381;51.254;15.592;2023-06-22T13:21:30;32.30;38.80
76537;DHT22;65381;51.254;15.592;2023-06-22T13:23:59;32.20;39.00
76537;DHT22;65381;51.254;15.592;2023-06-22T13:26:28;32.00;39.30
76537;DHT22;65381;51.254;15.592;2023-06-22T13:29:00;32.00;39.30
76537;DHT22;65381;51.254;15.592;2023-06-22T13:31:28;32.10;39.30
76537;DHT22;65381;51.254;15.592;2023-06-22T13:33:56;32.30;39.20
76537;DHT22;65381;51.254;15.592;2023-06-22T13:36:23;32.30;39.30
76537;DHT22;65381;51.254;15.592;2023-06-22T13:38:52;32.00;39.40
76537;DHT22;65381;51.254;15.592;2023-06-22T13:41:20;31.80;39.70
76537;DHT22;65381;51.254;15.592;2023-06-22T13:43:48;31.60;39.90
76537;DHT22;65381;51.254;15.592;2023-06-22T13:46:16;31.60;39.90
76537;DHT22;65381;51.254;15.592;2023-06-22T13:48:44;31.60;40.00
76537;DHT22;65381;51.254;15.592;2023-06-22T13:51:12;31.50;40.20
76537;DHT22;65381;51.254;15.592;2023-06-22T13:53:40;31.30;40.40
76537;DHT22;65381;51.254;15.592;2023-06-22T13:56:08;31.20;40.50
76537;DHT22;65381;51.254;15.592;2023-06-22T13:58:37;31.30;40.60
76537;DHT22;65381;51.254;15.592;2023-06-22T14:01:05;31.30;40.50
76537;DHT22;65381;51.254;15.592;2023-06-22T14:03:37;31.30;40.50
76537;DHT22;65381;51.254;15.592;2023-06-22T14:06:06;31.50;40.60
76537;DHT22;65381;51.254;15.592;2023-06-22T14:08:34;31.60;40.50
76537;DHT22;65381;51.254;15.592;2023-06-22T14:11:25;31.60;40.70
76537;DHT22;65381;51.254;15.592;2023-06-22T14:13:54;31.70;40.60
76537;DHT22;65381;51.254;15.592;2023-06-22T14:16:23;31.60;40.60
76537;DHT22;65381;51.254;15.592;2023-06-22T14:18:51;31.50;40.70
76537;DHT22;65381;51.254;15.592;2023-06-22T14:21:21;31.20;40.90
76537;DHT22;65381;51.254;15.592;2023-06-22T14:23:49;31.10;41.10
76537;DHT22;65381;51.254;15.592;2023-06-22T14:26:16;30.90;41.10
76537;DHT22;65381;51.254;15.592;2023-06-22T14:28:48;30.60;41.30
76537;DHT22;65381;51.254;15.592;2023-06-22T14:31:18;30.50;41.40
76537;DHT22;65381;51.254;15.592;2023-06-22T14:33:48;30.30;41.60
76537;DHT22;65381;51.254;15.592;2023-06-22T14:36:16;30.40;41.70
76537;DHT22;65381;51.254;15.592;2023-06-22T14:38:47;30.50;41.50
76537;DHT22;65381;51.254;15.592;2023-06-22T14:41:15;30.30;41.50
76537;DHT22;65381;51.254;15.592;2023-06-22T14:43:47;30.30;41.50
76537;DHT22;65381;51.254;15.592;2023-06-22T14:46:18;30.30;41.60
76537;DHT22;65381;51.254;15.592;2023-06-22T14:48:46;30.30;41.60
76537;DHT22;65381;51.254;15.592;2023-06-22T14:51:16;30.30;41.50
76537;DHT22;65381;51.254;15.592;2023-06-22T14:53:45;30.30;41.60
76537;DHT22;65381;51.254;15.592;2023-06-22T14:56:13;30.30;41.60
76537;DHT22;65381;51.254;15.592;2023-06-22T14:58:44;30.10;41.70
76537;DHT22;65381;51.254;15.592;2023-06-22T15:01:17;30.00;41.80
76537;DHT22;65381;51.254;15.592;2023-06-22T15:03:45;30.00;41.90
76537;DHT22;65381;51.254;15.592;2023-06-22T15:06:13;30.00;42.00
76537;DHT22;65381;51.254;15.592;2023-06-22T15:08:43;30.00;42.10
76537;DHT22;65381;51.254;15.592;2023-06-22T15:11:12;30.20;42.00
76537;DHT22;65381;51.254;15.592;2023-06-22T15:13:41;30.40;41.90
76537;DHT22;65381;51.254;15.592;2023-06-22T15:16:10;30.50;41.80
76537;DHT22;65381;51.254;15.592;2023-06-22T15:18:39;30.30;41.90
76537;DHT22;65381;51.254;15.592;2023-06-22T15:21:09;30.20;42.10
76537;DHT22;65381;51.254;15.592;2023-06-22T15:23:40;30.00;42.20
76537;DHT22;65381;51.254;15.592;2023-06-22T15:26:08;29.90;42.40
76537;DHT22;65381;51.254;15.592;2023-06-22T15:28:37;29.90;42.50
76537;DHT22;65381;51.254;15.592;2023-06-22T15:31:06;29.80;42.80
76537;DHT22;65381;51.254;15.592;2023-06-22T15:33:36;29.70;42.80
76537;DHT22;65381;51.254;15.592;2023-06-22T15:36:07;29.70;42.70